Lacey Township, New Jersey
Current Conditions -  °F | °C
As of 8:55 AM on Wednesday 26 Nov 2014 (Local Time) from KMJX Reporting Station
Overcast Overcast  
Wind Chill: 43°   Ceiling: 2000
Heat Index: 43°   Visibility: 4mi
Dew Point: 39°   Wind: 3mph
Humidity: 87%   Direction: 10°N
Pressure: 30.08"   Gusts: NA
Location:  39.8632°N, 74.1748°W
Report Text: KMJX 261355Z AUTO 01003KT 4SM BKN020 BKN029 OVC035 06/04 A3008 RMK AO1
Loading
Personal Weather Stations






























Interactive Weather Map New forecast layout! Learn more

10-Day Weather Forecast

Advertisements
Track Severe Weather on mobile